createdAt,value
2018-12-11T00:02:20.932Z,51.72
2018-12-11T00:04:46.969Z,51.71
2018-12-11T00:07:12.983Z,51.82
2018-12-11T00:09:39.021Z,51.69
2018-12-11T00:12:05.027Z,51.67
2018-12-11T00:14:31.070Z,51.88
2018-12-11T00:16:57.064Z,52.22
2018-12-11T00:19:23.008Z,51.62
2018-12-11T00:21:49.014Z,51.73
2018-12-11T00:24:15.057Z,51.81
2018-12-11T00:26:41.056Z,52.25
2018-12-11T00:29:07.000Z,52.31
2018-12-11T00:31:32.996Z,52.72
2018-12-11T00:33:58.940Z,51.75
2018-12-11T00:36:24.944Z,51.44
2018-12-11T00:38:50.876Z,51.89
2018-12-11T00:41:16.884Z,52.38
2018-12-11T00:43:42.849Z,51.94
2018-12-11T00:46:08.833Z,52.30
2018-12-11T00:48:34.876Z,51.72
2018-12-11T00:51:00.877Z,52.20
2018-12-11T00:53:26.840Z,52.00
2018-12-11T00:55:52.816Z,52.45
2018-12-11T00:58:18.745Z,51.87
2018-12-11T01:00:44.820Z,52.38
2018-12-11T01:03:10.788Z,52.56
2018-12-11T01:05:36.729Z,52.39
2018-12-11T01:08:02.739Z,52.32
2018-12-11T01:10:28.877Z,52.07
2018-12-11T01:12:54.887Z,52.35
2018-12-11T01:15:21.036Z,52.02
2018-12-11T01:17:47.031Z,51.94
2018-12-11T01:20:13.081Z,51.89
2018-12-11T01:22:39.177Z,52.07
2018-12-11T01:25:05.125Z,52.63
2018-12-11T01:27:31.117Z,51.90
2018-12-11T01:29:57.053Z,51.96
2018-12-11T01:32:23.060Z,52.14
2018-12-11T01:34:49.000Z,52.37
2018-12-11T01:37:15.005Z,51.97
2018-12-11T01:39:40.944Z,52.33
2018-12-11T01:42:06.956Z,51.88
2018-12-11T01:44:33.001Z,52.23
2018-12-11T01:46:58.998Z,51.96
2018-12-11T01:49:25.036Z,52.47
2018-12-11T01:51:51.049Z,52.72
2018-12-11T01:54:17.064Z,52.00
2018-12-11T01:56:43.016Z,52.66
2018-12-11T01:59:09.008Z,51.63
2018-12-11T02:01:34.952Z,52.48
2018-12-11T02:04:00.953Z,52.05
2018-12-11T02:06:27.036Z,52.62
2018-12-11T02:08:53.001Z,52.00
2018-12-11T02:11:18.974Z,52.50
2018-12-11T02:13:44.948Z,52.09
2018-12-11T02:16:10.984Z,52.12
2018-12-11T02:18:36.997Z,52.19
2018-12-11T02:21:03.054Z,52.36
2018-12-11T02:23:29.036Z,52.69
2018-12-11T02:25:55.076Z,52.03
2018-12-11T02:28:21.081Z,52.57
2018-12-11T02:30:47.132Z,52.74
2018-12-11T02:33:13.120Z,52.71
2018-12-11T02:35:39.070Z,52.78
2018-12-11T02:38:05.176Z,52.31
2018-12-11T02:40:31.213Z,52.50
2018-12-11T02:42:57.230Z,52.56
2018-12-11T02:45:23.264Z,52.43
2018-12-11T02:47:49.263Z,52.04
2018-12-11T02:50:15.419Z,52.20
2018-12-11T02:52:41.420Z,52.65
2018-12-11T02:55:07.448Z,52.59
2018-12-11T02:57:33.481Z,52.07
2018-12-11T02:59:59.585Z,52.51
2018-12-11T03:02:25.631Z,52.11
2018-12-11T03:04:51.633Z,52.86
2018-12-11T03:07:17.676Z,52.15
2018-12-11T03:09:43.678Z,52.78
2018-12-11T03:12:09.646Z,52.67
2018-12-11T03:14:35.724Z,52.79
2018-12-11T03:17:01.867Z,52.08
2018-12-11T03:19:27.984Z,52.06
2018-12-11T03:21:54.010Z,52.44
2018-12-11T03:24:20.120Z,52.54
2018-12-11T03:26:46.165Z,52.31
2018-12-11T03:29:12.278Z,52.48
2018-12-11T03:31:38.322Z,52.74
2018-12-11T03:34:04.325Z,52.32
2018-12-11T03:36:30.352Z,52.42
2018-12-11T03:38:56.365Z,52.23
2018-12-11T03:41:22.405Z,52.76
2018-12-11T03:43:48.414Z,52.48
2018-12-11T03:46:14.448Z,52.63
2018-12-11T03:48:40.461Z,52.79
2018-12-11T03:51:06.605Z,52.57
2018-12-11T03:53:32.696Z,52.87
2018-12-11T03:55:58.620Z,52.94
2018-12-11T03:58:24.568Z,52.07
2018-12-11T04:00:50.581Z,52.83
2018-12-11T04:03:16.714Z,52.50
2018-12-11T04:05:42.715Z,52.76
2018-12-11T04:08:08.988Z,52.65
2018-12-11T04:10:34.977Z,52.82
2018-12-11T04:13:01.112Z,52.31
2018-12-11T04:15:27.120Z,52.31
2018-12-11T04:17:53.157Z,52.55
2018-12-11T04:20:19.164Z,52.83
2018-12-11T04:22:45.217Z,52.69
2018-12-11T04:25:11.204Z,52.91
2018-12-11T04:27:37.156Z,52.38
2018-12-11T04:30:03.910Z,52.67
2018-12-11T04:32:29.913Z,52.50
2018-12-11T04:34:55.921Z,52.93
2018-12-11T04:37:21.956Z,52.90
2018-12-11T04:39:48.036Z,52.60
2018-12-11T04:42:14.050Z,52.71
2018-12-11T04:44:40.113Z,52.65
2018-12-11T04:47:06.156Z,52.48
2018-12-11T04:49:32.148Z,52.65
2018-12-11T04:51:58.136Z,52.99
2018-12-11T04:54:24.137Z,52.34
2018-12-11T04:56:50.116Z,52.95
2018-12-11T04:59:16.060Z,52.45
2018-12-11T05:01:42.130Z,52.19
2018-12-11T05:04:08.213Z,52.45
2018-12-11T05:06:34.204Z,52.44
2018-12-11T05:09:00.160Z,53.00
2018-12-11T05:11:26.116Z,52.67
2018-12-11T05:13:52.097Z,52.64
2018-12-11T05:16:18.101Z,53.09
2018-12-11T05:18:44.152Z,52.73
2018-12-11T05:21:10.152Z,52.49
2018-12-11T05:23:36.183Z,53.00
2018-12-11T05:26:02.209Z,53.10
2018-12-11T05:28:28.240Z,52.68
2018-12-11T05:30:54.237Z,52.49
2018-12-11T05:33:20.284Z,52.65
2018-12-11T05:35:46.298Z,53.16
2018-12-11T05:38:12.331Z,53.03
2018-12-11T05:40:38.328Z,52.71
2018-12-11T05:43:04.372Z,52.53
2018-12-11T05:45:30.372Z,52.55
2018-12-11T05:47:56.312Z,53.01
2018-12-11T05:50:22.321Z,52.94
2018-12-11T05:52:48.372Z,53.06
2018-12-11T05:55:14.360Z,52.90
2018-12-11T05:57:40.282Z,52.80
2018-12-11T06:00:06.981Z,53.07
2018-12-11T06:02:32.945Z,53.02
2018-12-11T06:04:59.096Z,52.96
2018-12-11T06:07:25.092Z,52.65
2018-12-11T06:09:51.132Z,53.03
2018-12-11T06:12:17.066Z,52.37
2018-12-11T06:14:43.184Z,52.44
2018-12-11T06:17:09.287Z,52.81
2018-12-11T06:19:35.332Z,53.06
2018-12-11T06:22:01.331Z,52.28
2018-12-11T06:24:27.273Z,52.44
2018-12-11T06:26:53.277Z,52.42
2018-12-11T06:29:19.332Z,52.32
2018-12-11T06:31:45.325Z,52.48
2018-12-11T06:34:11.365Z,53.05
2018-12-11T06:36:37.369Z,52.66
2018-12-11T06:39:04.485Z,52.92
2018-12-11T06:41:30.437Z,52.91
2018-12-11T06:43:56.488Z,53.01
2018-12-11T06:46:22.493Z,52.51
2018-12-11T06:48:48.524Z,52.72
2018-12-11T06:51:14.586Z,52.64
2018-12-11T06:53:40.653Z,53.07
2018-12-11T06:56:06.593Z,52.70
2018-12-11T06:58:32.600Z,52.48
2018-12-11T07:00:58.648Z,52.46
2018-12-11T07:03:24.656Z,52.80
2018-12-11T07:05:50.685Z,52.24
2018-12-11T07:08:16.684Z,52.97
2018-12-11T07:10:42.636Z,52.75
2018-12-11T07:13:08.688Z,52.91
2018-12-11T07:15:34.768Z,52.71
2018-12-11T07:18:00.792Z,52.54
2018-12-11T07:20:26.824Z,52.92
2018-12-11T07:22:52.816Z,52.41
2018-12-11T07:25:18.769Z,53.05
2018-12-11T07:27:44.772Z,52.46
2018-12-11T07:30:10.843Z,52.71
2018-12-11T07:32:36.812Z,52.42
2018-12-11T07:35:02.764Z,52.48
2018-12-11T07:37:28.758Z,52.92
2018-12-11T07:39:54.697Z,52.47
2018-12-11T07:42:20.705Z,53.11
2018-12-11T07:44:46.843Z,52.65
2018-12-11T07:47:12.848Z,52.72
2018-12-11T07:49:38.768Z,53.08
2018-12-11T07:52:04.708Z,52.93
2018-12-11T07:54:30.716Z,52.24
2018-12-11T07:56:56.752Z,52.51
2018-12-11T07:59:22.761Z,52.83
2018-12-11T08:01:48.796Z,52.53
2018-12-11T08:04:14.808Z,52.59
2018-12-11T08:06:40.845Z,52.49
2018-12-11T08:09:06.858Z,53.24
2018-12-11T08:11:32.908Z,52.48
2018-12-11T08:13:58.896Z,53.15
2018-12-11T08:16:25.044Z,52.37
2018-12-11T08:18:51.061Z,53.07
2018-12-11T08:21:17.085Z,53.09
2018-12-11T08:23:43.089Z,52.04
2018-12-11T08:26:09.052Z,53.07
2018-12-11T08:28:36.081Z,52.60
2018-12-11T08:31:02.199Z,52.87
2018-12-11T08:33:28.208Z,53.13
2018-12-11T08:35:54.248Z,52.84
2018-12-11T08:38:20.253Z,53.47
2018-12-11T08:40:46.297Z,52.68
2018-12-11T08:43:12.301Z,52.97
2018-12-11T08:45:38.341Z,52.87
2018-12-11T08:48:04.361Z,53.45
2018-12-11T08:50:30.377Z,53.13
2018-12-11T08:52:56.421Z,53.55
2018-12-11T08:55:22.413Z,53.72
2018-12-11T08:57:48.460Z,53.48
2018-12-11T09:00:14.456Z,53.90
2018-12-11T09:02:40.470Z,54.03
2018-12-11T09:05:06.504Z,54.77
2018-12-11T09:07:32.444Z,54.10
2018-12-11T09:09:58.452Z,54.82
2018-12-11T09:12:24.514Z,54.32
2018-12-11T09:14:50.502Z,54.19
2018-12-11T09:17:16.537Z,54.63
2018-12-11T09:19:42.537Z,54.38
2018-12-11T09:22:08.500Z,54.19
2018-12-11T09:24:34.486Z,54.68
2018-12-11T09:27:00.528Z,53.57
2018-12-11T09:29:26.539Z,51.39
2018-12-11T09:31:52.580Z,48.02
2018-12-11T09:34:18.577Z,46.60
2018-12-11T09:36:44.725Z,47.25
2018-12-11T09:39:10.729Z,48.22
2018-12-11T09:41:36.764Z,48.88
2018-12-11T09:44:02.772Z,48.51
2018-12-11T09:46:28.812Z,48.99
2018-12-11T09:48:54.838Z,48.73
2018-12-11T09:51:20.844Z,48.80
2018-12-11T09:53:46.880Z,49.42
2018-12-11T09:56:12.881Z,49.66
2018-12-11T09:58:38.826Z,49.26
2018-12-11T10:01:04.829Z,49.67
2018-12-11T10:03:30.892Z,49.71
2018-12-11T10:05:56.880Z,49.11
2018-12-11T10:08:22.928Z,50.00
2018-12-11T10:10:48.921Z,48.90
2018-12-11T10:13:14.949Z,48.99
2018-12-11T10:15:40.995Z,49.25
2018-12-11T10:18:07.088Z,49.23
2018-12-11T10:20:33.044Z,48.95
2018-12-11T10:22:59.040Z,48.88
2018-12-11T10:25:25.176Z,49.32
2018-12-11T10:27:51.188Z,48.53
2018-12-11T10:30:17.233Z,49.37
2018-12-11T10:32:43.220Z,49.15
2018-12-11T10:35:09.196Z,48.93
2018-12-11T10:37:35.180Z,49.79
2018-12-11T10:40:01.235Z,49.51
2018-12-11T10:42:27.212Z,49.38
2018-12-11T10:44:53.193Z,49.36
2018-12-11T10:47:19.169Z,49.06
2018-12-11T10:49:45.228Z,49.41
2018-12-11T10:52:11.218Z,49.39
2018-12-11T10:54:37.332Z,50.38
2018-12-11T10:57:03.276Z,49.45
2018-12-11T10:59:29.273Z,49.86
2018-12-11T11:01:55.229Z,49.59
2018-12-11T11:04:21.252Z,49.05
2018-12-11T11:06:47.264Z,49.06
2018-12-11T11:09:13.268Z,49.77
2018-12-11T11:11:39.308Z,47.93
2018-12-11T11:14:05.316Z,47.88
2018-12-11T11:16:31.452Z,48.16
2018-12-11T11:18:57.456Z,48.35
2018-12-11T11:21:23.936Z,48.86
2018-12-11T11:23:50.197Z,48.30
2018-12-11T11:26:16.449Z,48.22
2018-12-11T11:28:42.733Z,48.51
2018-12-11T11:31:09.044Z,48.56
2018-12-11T11:33:35.161Z,49.11
2018-12-11T11:36:01.834Z,48.55
2018-12-11T11:38:28.104Z,48.43
2018-12-11T11:40:54.514Z,48.57
2018-12-11T11:43:20.975Z,49.07
2018-12-11T11:45:47.255Z,48.26
2018-12-11T11:48:13.648Z,48.38
2018-12-11T11:50:39.830Z,48.14
2018-12-11T11:53:05.976Z,48.36
2018-12-11T11:55:32.325Z,48.09
2018-12-11T11:57:58.733Z,47.67
2018-12-11T12:00:25.151Z,47.18
2018-12-11T12:02:51.297Z,47.03
2018-12-11T12:05:17.620Z,47.64
2018-12-11T12:07:43.589Z,47.61
2018-12-11T12:10:09.604Z,47.56
2018-12-11T12:12:36.872Z,48.09
2018-12-11T12:15:03.403Z,47.81
2018-12-11T12:17:29.409Z,47.80
2018-12-11T12:19:55.408Z,48.00
2018-12-11T12:22:21.430Z,48.60
2018-12-11T12:24:47.658Z,47.99
2018-12-11T12:27:13.601Z,48.14
2018-12-11T12:29:39.600Z,48.67
2018-12-11T12:32:05.544Z,48.29
2018-12-11T12:34:31.544Z,48.75
2018-12-11T12:36:57.486Z,49.02
2018-12-11T12:39:23.491Z,48.49
2018-12-11T12:41:49.616Z,48.40
2018-12-11T12:44:15.564Z,48.53
2018-12-11T12:46:41.569Z,48.63
2018-12-11T12:49:07.601Z,49.27
2018-12-11T12:51:33.604Z,48.66
2018-12-11T12:53:59.544Z,48.81
2018-12-11T12:56:25.553Z,49.69
2018-12-11T12:58:51.593Z,48.86
2018-12-11T13:01:17.601Z,49.22
2018-12-11T13:03:43.636Z,49.64
2018-12-11T13:06:09.684Z,48.65
2018-12-11T13:08:35.785Z,48.88
2018-12-11T13:11:01.797Z,48.90
2018-12-11T13:13:27.758Z,49.35
2018-12-11T13:15:53.838Z,49.39
2018-12-11T13:18:19.880Z,49.33
2018-12-11T13:20:45.877Z,48.53
2018-12-11T13:23:11.820Z,48.51
2018-12-11T13:25:37.824Z,48.84
2018-12-11T13:28:03.872Z,49.21
2018-12-11T13:30:29.868Z,49.25
2018-12-11T13:32:55.809Z,48.91
2018-12-11T13:35:21.809Z,49.32
2018-12-11T13:37:47.752Z,49.25
2018-12-11T13:40:13.856Z,48.78
2018-12-11T13:42:39.773Z,48.56
2018-12-11T13:45:05.816Z,46.93
2018-12-11T13:47:31.820Z,48.45
2018-12-11T13:49:57.764Z,47.09
2018-12-11T13:52:23.788Z,46.94
2018-12-11T13:54:49.808Z,46.96
2018-12-11T13:57:15.812Z,46.80
2018-12-11T13:59:41.876Z,46.74
2018-12-11T14:02:07.857Z,46.16
2018-12-11T14:04:33.808Z,46.44
2018-12-11T14:06:59.804Z,45.59
2018-12-11T14:09:25.741Z,44.84
2018-12-11T14:11:51.736Z,45.29
2018-12-11T14:14:17.796Z,45.28
2018-12-11T14:16:43.796Z,44.77
2018-12-11T14:19:09.840Z,44.61
2018-12-11T14:21:35.844Z,44.87
2018-12-11T14:24:01.908Z,45.19
2018-12-11T14:26:27.889Z,45.17
2018-12-11T14:28:53.916Z,45.40
2018-12-11T14:31:19.950Z,45.70
2018-12-11T14:33:45.960Z,45.46
2018-12-11T14:36:11.996Z,45.65
2018-12-11T14:38:38.004Z,46.44
2018-12-11T14:41:04.041Z,46.33
2018-12-11T14:43:30.044Z,46.54
2018-12-11T14:45:55.985Z,45.88
2018-12-11T14:48:21.985Z,46.64
2018-12-11T14:50:47.936Z,46.54
2018-12-11T14:53:13.932Z,46.57
2018-12-11T14:55:39.900Z,46.07
2018-12-11T14:58:05.901Z,46.25
2018-12-11T15:00:31.900Z,47.19
2018-12-11T15:02:57.941Z,47.24
2018-12-11T15:05:23.945Z,47.33
2018-12-11T15:07:49.884Z,46.95
2018-12-11T15:10:15.949Z,46.73
2018-12-11T15:12:41.929Z,47.50
2018-12-11T15:15:08.475Z,46.73
2018-12-11T15:17:34.492Z,46.25
2018-12-11T15:20:00.492Z,46.66
2018-12-11T15:22:26.431Z,46.44
2018-12-11T15:24:52.436Z,46.29
2018-12-11T15:27:18.382Z,46.34
2018-12-11T15:29:44.485Z,46.51
2018-12-11T15:32:10.525Z,46.72
2018-12-11T15:34:36.530Z,46.78
2018-12-11T15:37:02.552Z,46.95
2018-12-11T15:39:28.592Z,47.13
2018-12-11T15:41:54.596Z,46.35
2018-12-11T15:44:20.542Z,46.93
2018-12-11T15:46:46.545Z,47.01
2018-12-11T15:49:12.595Z,47.23
2018-12-11T15:51:38.692Z,46.63
2018-12-11T15:54:04.732Z,47.31
2018-12-11T15:56:30.737Z,47.27
2018-12-11T15:58:56.672Z,47.65
2018-12-11T16:01:22.685Z,48.06
2018-12-11T16:03:48.721Z,47.30
2018-12-11T16:06:14.732Z,46.98
2018-12-11T16:08:41.584Z,46.97
2018-12-11T16:11:07.605Z,46.31
2018-12-11T16:13:33.664Z,47.25
2018-12-11T16:15:59.636Z,47.51
2018-12-11T16:18:25.680Z,46.94
2018-12-11T16:20:51.697Z,47.14
2018-12-11T16:23:17.836Z,46.98
2018-12-11T16:25:43.828Z,46.92
2018-12-11T16:28:09.773Z,46.67
2018-12-11T16:30:35.781Z,46.78
2018-12-11T16:33:01.828Z,47.15
2018-12-11T16:35:27.821Z,46.47
2018-12-11T16:37:53.747Z,46.05
2018-12-11T16:40:19.780Z,46.34
2018-12-11T16:42:45.789Z,46.40
2018-12-11T16:45:11.829Z,46.61
2018-12-11T16:47:37.832Z,47.03
2018-12-11T16:50:03.901Z,47.19
2018-12-11T16:52:29.876Z,46.85
2018-12-11T16:54:55.824Z,46.79
2018-12-11T16:57:21.824Z,47.61
2018-12-11T16:59:47.868Z,47.52
2018-12-11T17:02:13.869Z,47.68
2018-12-11T17:04:39.808Z,47.05
2018-12-11T17:07:05.820Z,46.51
2018-12-11T17:09:31.860Z,46.64
2018-12-11T17:11:57.902Z,47.31
2018-12-11T17:14:23.900Z,46.84
2018-12-11T17:16:49.906Z,47.02
2018-12-11T17:19:15.960Z,48.06
2018-12-11T17:21:46.966Z,47.98
2018-12-11T17:24:09.941Z,47.62
2018-12-11T17:26:35.940Z,48.10
2018-12-11T17:29:01.888Z,48.49
2018-12-11T17:31:27.885Z,47.91
2018-12-11T17:33:53.841Z,48.18
2018-12-11T17:36:19.937Z,48.82
2018-12-11T17:38:45.953Z,48.69
2018-12-11T17:41:12.005Z,48.87
2018-12-11T17:43:38.062Z,49.01
2018-12-11T17:46:04.061Z,48.84
2018-12-11T17:48:30.049Z,49.06
2018-12-11T17:50:55.993Z,48.58
2018-12-11T17:53:21.989Z,48.33
2018-12-11T17:55:47.933Z,48.94
2018-12-11T17:58:13.932Z,48.97
2018-12-11T18:00:39.876Z,49.01
2018-12-11T18:03:05.884Z,48.21
2018-12-11T18:05:31.920Z,48.75
2018-12-11T18:07:57.924Z,48.51
2018-12-11T18:10:23.869Z,48.63
2018-12-11T18:12:49.872Z,48.41
2018-12-11T18:15:15.916Z,48.75
2018-12-11T18:17:41.912Z,48.63
2018-12-11T18:20:07.878Z,48.69
2018-12-11T18:22:33.956Z,48.72
2018-12-11T18:24:59.901Z,47.83
2018-12-11T18:27:25.905Z,47.59
2018-12-11T18:29:51.863Z,47.02
2018-12-11T18:32:17.851Z,47.75
2018-12-11T18:34:43.876Z,47.50
2018-12-11T18:37:09.946Z,47.67
2018-12-11T18:39:35.921Z,47.76
2018-12-11T18:42:01.972Z,47.76
2018-12-11T18:44:28.065Z,47.69
2018-12-11T18:46:54.008Z,47.87
2018-12-11T18:49:20.017Z,47.85
2018-12-11T18:51:46.056Z,47.15
2018-12-11T18:54:12.060Z,48.18
2018-12-11T18:56:38.096Z,47.41
2018-12-11T18:59:04.100Z,47.97
2018-12-11T19:01:30.249Z,47.47
2018-12-11T19:03:56.275Z,45.71
2018-12-11T19:06:22.292Z,44.53
2018-12-11T19:08:48.297Z,44.11
2018-12-11T19:11:14.346Z,42.91
2018-12-11T19:13:40.291Z,42.19
2018-12-11T19:16:06.289Z,42.37
2018-12-11T19:18:32.305Z,42.41
2018-12-11T19:20:58.333Z,41.86
2018-12-11T19:23:57.768Z,42.05
2018-12-11T19:26:23.753Z,41.20
2018-12-11T19:28:49.767Z,41.30
2018-12-11T19:31:15.917Z,40.86
2018-12-11T19:33:41.908Z,40.97
2018-12-11T19:36:07.861Z,41.37
2018-12-11T19:38:33.854Z,40.75
2018-12-11T19:40:59.983Z,41.32
2018-12-11T19:43:26.038Z,41.33
2018-12-11T19:45:52.324Z,40.57
2018-12-11T19:48:18.491Z,41.67
2018-12-11T19:50:44.502Z,41.88
2018-12-11T19:53:10.594Z,41.99
2018-12-11T19:55:36.645Z,41.78
2018-12-11T19:58:02.710Z,41.74
2018-12-11T20:00:28.769Z,41.39
2018-12-11T20:02:54.822Z,41.87
2018-12-11T20:05:20.917Z,41.57
2018-12-11T20:07:47.080Z,42.34
2018-12-11T20:10:13.165Z,44.58
2018-12-11T20:12:39.343Z,44.82
2018-12-11T20:15:05.460Z,44.22
2018-12-11T20:17:31.667Z,44.54
2018-12-11T20:19:57.768Z,44.68
2018-12-11T20:22:23.796Z,44.76
2018-12-11T20:24:49.910Z,45.48
2018-12-11T20:27:15.938Z,45.53
2018-12-11T20:29:41.963Z,46.00
2018-12-11T20:32:07.962Z,45.52
2018-12-11T20:34:33.978Z,45.41
2018-12-11T20:36:59.958Z,45.54
2018-12-11T20:39:26.016Z,45.76
2018-12-11T20:41:52.025Z,45.65
2018-12-11T20:44:18.147Z,45.66
2018-12-11T20:46:44.179Z,46.15
2018-12-11T20:49:10.215Z,46.32
2018-12-11T20:51:36.188Z,46.45
2018-12-11T20:54:02.232Z,45.87
2018-12-11T20:56:28.232Z,45.69
2018-12-11T20:58:54.449Z,45.81
2018-12-11T21:01:20.368Z,46.07
2018-12-11T21:03:46.308Z,45.84
2018-12-11T21:06:12.320Z,46.69
2018-12-11T21:08:38.589Z,46.33
2018-12-11T21:11:04.565Z,46.10
2018-12-11T21:13:30.609Z,45.74
2018-12-11T21:15:57.638Z,45.37
2018-12-11T21:18:23.685Z,46.31
2018-12-11T21:20:49.693Z,45.80
2018-12-11T21:23:15.728Z,46.12
2018-12-11T21:25:41.732Z,45.85
2018-12-11T21:28:07.797Z,45.92
2018-12-11T21:30:33.780Z,46.36
2018-12-11T21:32:59.805Z,46.04
2018-12-11T21:35:25.851Z,46.47
2018-12-11T21:37:51.841Z,45.88
2018-12-11T21:40:17.804Z,46.51
2018-12-11T21:42:43.790Z,45.97
2018-12-11T21:45:09.834Z,46.49
2018-12-11T21:47:35.833Z,46.50
2018-12-11T21:50:02.005Z,46.49
2018-12-11T21:52:28.088Z,46.28
2018-12-11T21:54:54.132Z,46.06
2018-12-11T21:57:20.132Z,46.57
2018-12-11T21:59:46.168Z,46.10
2018-12-11T22:02:12.182Z,46.56
2018-12-11T22:04:38.216Z,46.61
2018-12-11T22:07:04.221Z,46.54
2018-12-11T22:09:30.354Z,46.63
2018-12-11T22:11:56.393Z,45.93
2018-12-11T22:14:22.332Z,46.48
2018-12-11T22:16:48.347Z,46.02
2018-12-11T22:19:14.337Z,46.73
2018-12-11T22:21:40.280Z,46.67
2018-12-11T22:24:06.284Z,45.68
2018-12-11T22:26:32.320Z,46.65
2018-12-11T22:28:58.320Z,46.59
2018-12-11T22:31:24.276Z,46.53
2018-12-11T22:33:50.273Z,46.34
2018-12-11T22:36:16.292Z,46.07
2018-12-11T22:38:42.227Z,46.65
2018-12-11T22:41:08.241Z,46.32
2018-12-11T22:43:34.177Z,46.36
2018-12-11T22:46:00.184Z,46.12
2018-12-11T22:48:26.221Z,46.00
2018-12-11T22:50:52.333Z,46.80
2018-12-11T22:53:18.373Z,46.17
2018-12-11T22:55:44.369Z,46.23
2018-12-11T22:58:10.322Z,46.73
2018-12-11T23:00:36.336Z,46.15
2018-12-11T23:03:02.383Z,46.53
2018-12-11T23:05:28.380Z,46.19
2018-12-11T23:07:54.409Z,46.02
2018-12-11T23:10:20.404Z,46.84
2018-12-11T23:12:46.360Z,46.80
2018-12-11T23:15:12.352Z,46.62
2018-12-11T23:17:38.280Z,46.18
2018-12-11T23:20:04.462Z,46.35
2018-12-11T23:22:30.525Z,46.83
2018-12-11T23:24:56.460Z,46.52
2018-12-11T23:27:22.477Z,46.79
2018-12-11T23:29:48.517Z,46.83
2018-12-11T23:32:14.512Z,46.73
2018-12-11T23:34:40.453Z,46.34
2018-12-11T23:37:06.468Z,46.78
2018-12-11T23:39:32.609Z,46.44
2018-12-11T23:41:58.605Z,46.71
2018-12-11T23:44:24.552Z,46.30
2018-12-11T23:46:50.548Z,46.70
2018-12-11T23:49:16.488Z,46.54
2018-12-11T23:51:42.501Z,45.89
2018-12-11T23:54:08.548Z,46.37
2018-12-11T23:56:34.540Z,46.08
2018-12-11T23:59:00.581Z,46.15
